createdAt,value
2019-01-16T00:00:35.072Z,91.09
2019-01-16T00:01:35.310Z,90.81
2019-01-16T00:02:35.063Z,91
2019-01-16T00:03:35.294Z,90.81
2019-01-16T00:04:35.072Z,90.33
2019-01-16T00:05:35.015Z,90.33
2019-01-16T00:06:35.266Z,90.71
2019-01-16T00:07:35.005Z,90.05
2019-01-16T00:08:35.289Z,90.33
2019-01-16T00:09:35.241Z,90.52
2019-01-16T00:10:35.230Z,90.71
2019-01-16T00:11:34.980Z,90.62
2019-01-16T00:12:35.211Z,91
2019-01-16T00:13:35.218Z,91.19
2019-01-16T00:14:34.934Z,90.81
2019-01-16T00:15:35.178Z,90.81
2019-01-16T00:16:35.172Z,90.62
2019-01-16T00:17:35.168Z,90.52
2019-01-16T00:18:35.157Z,90.71
2019-01-16T00:19:35.174Z,90.71
2019-01-16T00:20:35.137Z,90.62
2019-01-16T00:21:35.154Z,90.43
2019-01-16T00:22:35.120Z,90.14
2019-01-16T00:23:35.108Z,90.71
2019-01-16T00:24:35.110Z,90.14
2019-01-16T00:25:35.099Z,91
2019-01-16T00:26:35.098Z,90.81
2019-01-16T00:27:35.075Z,90.33
2019-01-16T00:28:35.075Z,90.71
2019-01-16T00:29:35.062Z,90.52
2019-01-16T00:30:35.059Z,90.81
2019-01-16T00:31:35.054Z,91
2019-01-16T00:32:34.786Z,91.38
2019-01-16T00:33:34.783Z,90.9
2019-01-16T00:34:35.017Z,90.9
2019-01-16T00:35:35.016Z,90.81
2019-01-16T00:36:34.756Z,90.52
2019-01-16T00:37:35.003Z,91.19
2019-01-16T00:38:34.742Z,91.19
2019-01-16T00:39:35.004Z,91.28
2019-01-16T00:40:34.985Z,91.28
2019-01-16T00:41:34.711Z,91.09
2019-01-16T00:42:34.950Z,90.71
2019-01-16T00:43:34.958Z,91.19
2019-01-16T00:44:34.698Z,90.43
2019-01-16T00:45:34.683Z,90.62
2019-01-16T00:46:34.987Z,91
2019-01-16T00:47:34.908Z,90.81
2019-01-16T00:48:34.900Z,91
2019-01-16T00:49:34.895Z,90.71
2019-01-16T00:50:34.884Z,90.71
2019-01-16T00:51:34.882Z,90.52
2019-01-16T00:52:34.866Z,90.9
2019-01-16T00:53:34.860Z,91.19
2019-01-16T00:54:34.860Z,91.28
2019-01-16T00:55:34.904Z,91
2019-01-16T00:56:34.585Z,90.81
2019-01-16T00:57:34.830Z,90.81
2019-01-16T00:58:34.814Z,91.19
2019-01-16T00:59:34.894Z,91.38
2019-01-16T01:00:34.810Z,91.09
2019-01-16T01:01:34.794Z,91.19
2019-01-16T01:02:34.785Z,90.52
2019-01-16T01:03:34.776Z,90.14
2019-01-16T01:04:34.778Z,90.62
2019-01-16T01:05:34.771Z,90.81
2019-01-16T01:06:34.754Z,90.62
2019-01-16T01:07:34.493Z,90.71
2019-01-16T01:08:34.740Z,91.56
2019-01-16T01:09:34.476Z,91
2019-01-16T01:10:34.734Z,91.38
2019-01-16T01:11:34.464Z,91.38
2019-01-16T01:12:34.461Z,91.56
2019-01-16T01:13:34.698Z,91.19
2019-01-16T01:14:34.508Z,90.81
2019-01-16T01:15:34.503Z,91.38
2019-01-16T01:16:34.412Z,91.28
2019-01-16T01:17:34.654Z,91.56
2019-01-16T01:18:40.606Z,91.94
2019-01-16T01:19:34.410Z,91.75
2019-01-16T01:20:34.383Z,91.94
2019-01-16T01:21:34.628Z,91.19
2019-01-16T01:22:34.610Z,91.56
2019-01-16T01:23:34.598Z,91
2019-01-16T01:24:34.344Z,91.09
2019-01-16T01:25:34.579Z,91
2019-01-16T01:26:34.327Z,90.9
2019-01-16T01:27:34.320Z,91.09
2019-01-16T01:28:34.312Z,91.75
2019-01-16T01:29:34.317Z,91.56
2019-01-16T01:30:34.292Z,91.85
2019-01-16T01:31:34.283Z,91.85
2019-01-16T01:32:34.285Z,91.19
2019-01-16T01:33:34.265Z,91.47
2019-01-16T01:34:34.520Z,91.47
2019-01-16T01:35:34.552Z,91.28
2019-01-16T01:36:34.517Z,91
2019-01-16T01:37:34.489Z,90.33
2019-01-16T01:38:34.485Z,90.43
2019-01-16T01:39:34.464Z,90.71
2019-01-16T01:40:34.200Z,90.81
2019-01-16T01:41:34.219Z,91.38
2019-01-16T01:42:34.447Z,90.71
2019-01-16T01:43:34.189Z,90.52
2019-01-16T01:44:34.176Z,91
2019-01-16T01:45:34.469Z,90.9
2019-01-16T01:46:34.158Z,91.38
2019-01-16T01:47:34.390Z,91.19
2019-01-16T01:48:39.889Z,91.19
2019-01-16T01:49:34.383Z,90.62
2019-01-16T01:50:34.367Z,90.24
2019-01-16T01:51:34.118Z,90.52
2019-01-16T01:52:34.127Z,90.24
2019-01-16T01:53:34.350Z,90.81
2019-01-16T01:54:34.339Z,91.09
2019-01-16T01:55:34.079Z,90.52
2019-01-16T01:56:34.320Z,90.43
2019-01-16T01:57:34.094Z,90.62
2019-01-16T01:58:34.307Z,91.09
2019-01-16T01:59:34.101Z,90.81
2019-01-16T02:00:34.287Z,90.33
2019-01-16T02:01:34.030Z,90.43
2019-01-16T02:02:34.281Z,90.81
2019-01-16T02:03:34.050Z,90.14
2019-01-16T02:04:37.158Z,91.28
2019-01-16T02:05:34.245Z,91.47
2019-01-16T02:06:34.245Z,91.56
2019-01-16T02:07:34.230Z,91.19
2019-01-16T02:08:33.966Z,91.38
2019-01-16T02:09:34.288Z,90.81
2019-01-16T02:10:33.969Z,90.52
2019-01-16T02:11:34.186Z,91.19
2019-01-16T02:12:34.179Z,91.47
2019-01-16T02:13:34.180Z,91.09
2019-01-16T02:14:34.161Z,91.19
2019-01-16T02:15:34.197Z,91.47
2019-01-16T02:16:34.148Z,91
2019-01-16T02:17:33.887Z,91.56
2019-01-16T02:18:33.884Z,91.38
2019-01-16T02:19:33.877Z,91
2019-01-16T02:20:33.868Z,90.81
2019-01-16T02:21:34.105Z,91
2019-01-16T02:22:34.094Z,91.75
2019-01-16T02:23:34.085Z,91.94
2019-01-16T02:24:33.831Z,92.23
2019-01-16T02:25:34.092Z,91.85
2019-01-16T02:26:33.825Z,91.56
2019-01-16T02:27:34.060Z,91.38
2019-01-16T02:28:34.050Z,91.28
2019-01-16T02:29:34.039Z,91
2019-01-16T02:30:33.776Z,91.38
2019-01-16T02:31:33.770Z,90.9
2019-01-16T02:32:34.011Z,91
2019-01-16T02:33:33.896Z,90.52
2019-01-16T02:34:33.999Z,90.52
2019-01-16T02:35:37.831Z,90.33
2019-01-16T02:36:33.978Z,90.33
2019-01-16T02:37:33.725Z,90.52
2019-01-16T02:38:33.709Z,90.33
2019-01-16T02:39:33.957Z,90.05
2019-01-16T02:40:33.700Z,89.62
2019-01-16T02:41:33.933Z,89.34
2019-01-16T02:42:33.935Z,89.53
2019-01-16T02:43:33.668Z,89.81
2019-01-16T02:44:33.902Z,90.57
2019-01-16T02:45:33.648Z,91.24
2019-01-16T02:46:33.651Z,91.9
2019-01-16T02:47:33.879Z,92.94
2019-01-16T02:48:33.910Z,93.61
2019-01-16T02:49:33.876Z,93.51
2019-01-16T02:50:33.878Z,94.37
2019-01-16T02:51:33.629Z,94.27
2019-01-16T02:52:33.617Z,94.46
2019-01-16T02:53:33.837Z,94.84
2019-01-16T02:54:33.825Z,94.56
2019-01-16T02:55:33.844Z,94.74
2019-01-16T02:56:33.796Z,94.46
2019-01-16T02:57:33.600Z,94.37
2019-01-16T02:58:33.785Z,94.46
2019-01-16T02:59:33.774Z,94.13
2019-01-16T03:00:33.531Z,95.17
2019-01-16T03:01:34.726Z,95.36
2019-01-16T03:02:33.749Z,95.84
2019-01-16T03:03:33.734Z,96.03
2019-01-16T03:04:33.483Z,95.93
2019-01-16T03:05:33.721Z,96.12
2019-01-16T03:06:33.715Z,96.78
2019-01-16T03:07:33.721Z,96.59
2019-01-16T03:08:33.689Z,96.22
2019-01-16T03:09:33.681Z,97.54
2019-01-16T03:10:33.661Z,97.07
2019-01-16T03:11:33.657Z,97.16
2019-01-16T03:12:33.658Z,97.92
2019-01-16T03:13:33.636Z,97.73
2019-01-16T03:14:33.666Z,97.92
2019-01-16T03:15:33.634Z,98.02
2019-01-16T03:16:33.367Z,97.73
2019-01-16T03:17:33.598Z,97.54
2019-01-16T03:18:33.596Z,97.83
2019-01-16T03:19:33.330Z,97.92
2019-01-16T03:20:33.567Z,98.39
2019-01-16T03:21:33.575Z,98.02
2019-01-16T03:22:33.312Z,98.87
2019-01-16T03:23:33.533Z,98.49
2019-01-16T03:24:33.295Z,99.25
2019-01-16T03:25:33.538Z,98.68
2019-01-16T03:26:33.278Z,99.15
2019-01-16T03:27:33.503Z,98.87
2019-01-16T03:28:33.492Z,99.15
2019-01-16T03:29:33.485Z,99.82
2019-01-16T03:30:33.486Z,99.99
2019-01-16T03:31:33.518Z,99.25
2019-01-16T03:32:33.230Z,99.34
2019-01-16T03:33:33.190Z,98.68
2019-01-16T03:34:33.195Z,99.06
2019-01-16T03:35:33.444Z,99.34
2019-01-16T03:36:33.187Z,99.44
2019-01-16T03:37:33.168Z,99.82
2019-01-16T03:38:33.392Z,99.99
2019-01-16T03:39:33.381Z,99.06
2019-01-16T03:40:33.387Z,98.58
2019-01-16T03:41:33.364Z,98.77
2019-01-16T03:42:33.348Z,98.77
2019-01-16T03:43:33.102Z,98.77
2019-01-16T03:44:33.327Z,99.06
2019-01-16T03:45:33.319Z,98.77
2019-01-16T03:46:33.074Z,98.77
2019-01-16T03:47:33.308Z,98.77
2019-01-16T03:48:33.318Z,99.34
2019-01-16T03:49:33.286Z,99.06
2019-01-16T03:50:33.043Z,99.72
2019-01-16T03:51:33.020Z,99.44
2019-01-16T03:52:33.260Z,99.34
2019-01-16T03:53:32.998Z,99.06
2019-01-16T03:54:33.232Z,98.77
2019-01-16T03:55:33.227Z,98.39
2019-01-16T03:56:33.222Z,98.68
2019-01-16T03:57:33.202Z,98.21
2019-01-16T03:58:32.939Z,98.3
2019-01-16T03:59:33.079Z,98.39
2019-01-16T04:00:32.919Z,98.77
2019-01-16T04:01:32.929Z,98.77
2019-01-16T04:02:33.155Z,98.49
2019-01-16T04:03:32.899Z,98.68
2019-01-16T04:04:33.135Z,98.21
2019-01-16T04:05:33.154Z,98.87
2019-01-16T04:06:33.915Z,98.87
2019-01-16T04:07:33.104Z,98.21
2019-01-16T04:08:32.847Z,98.21
2019-01-16T04:09:32.833Z,98.02
2019-01-16T04:10:32.818Z,98.21
2019-01-16T04:11:32.821Z,99.25
2019-01-16T04:12:32.829Z,98.96
2019-01-16T04:13:33.051Z,99.99
2019-01-16T04:14:33.031Z,99.15
2019-01-16T04:15:33.015Z,99.25
2019-01-16T04:16:33.019Z,98.87
2019-01-16T04:17:32.752Z,98.21
2019-01-16T04:18:32.997Z,98.21
2019-01-16T04:19:32.727Z,98.02
2019-01-16T04:20:32.981Z,98.11
2019-01-16T04:21:32.733Z,98.39
2019-01-16T04:22:32.961Z,97.83
2019-01-16T04:23:32.943Z,98.11
2019-01-16T04:24:32.924Z,97.64
2019-01-16T04:25:32.922Z,98.02
2019-01-16T04:26:32.915Z,98.02
2019-01-16T04:27:32.679Z,97.64
2019-01-16T04:28:32.902Z,97.45
2019-01-16T04:29:32.631Z,97.26
2019-01-16T04:30:32.619Z,97.16
2019-01-16T04:31:32.616Z,97.64
2019-01-16T04:32:32.857Z,98.11
2019-01-16T04:33:32.847Z,98.3
2019-01-16T04:34:32.829Z,97.26
2019-01-16T04:35:32.565Z,97.45
2019-01-16T04:36:32.814Z,96.69
2019-01-16T04:37:32.793Z,97.16
2019-01-16T04:38:32.803Z,97.64
2019-01-16T04:39:32.783Z,97.45
2019-01-16T04:40:32.766Z,97.54
2019-01-16T04:41:32.772Z,96.97
2019-01-16T04:42:32.763Z,97.26
2019-01-16T04:43:32.772Z,96.59
2019-01-16T04:44:32.743Z,96.78
2019-01-16T04:45:32.724Z,96.41
2019-01-16T04:46:32.490Z,96.78
2019-01-16T04:47:32.697Z,96.03
2019-01-16T04:48:32.441Z,96.78
2019-01-16T04:49:33.217Z,97.35
2019-01-16T04:50:32.682Z,97.83
2019-01-16T04:51:32.695Z,97.54
2019-01-16T04:52:32.391Z,96.03
2019-01-16T04:53:32.385Z,95.84
2019-01-16T04:54:32.646Z,95.93
2019-01-16T04:55:32.620Z,96.69
2019-01-16T04:56:32.377Z,96.69
2019-01-16T04:57:32.360Z,96.78
2019-01-16T04:58:32.343Z,96.69
2019-01-16T04:59:32.624Z,96.59
2019-01-16T05:00:32.329Z,96.78
2019-01-16T05:01:32.569Z,96.5
2019-01-16T05:02:32.571Z,96.59
2019-01-16T05:03:32.553Z,96.31
2019-01-16T05:04:32.548Z,95.93
2019-01-16T05:05:32.547Z,95.93
2019-01-16T05:06:32.519Z,96.59
2019-01-16T05:07:32.262Z,96.41
2019-01-16T05:08:32.243Z,96.22
2019-01-16T05:09:32.493Z,96.59
2019-01-16T05:10:32.488Z,96.41
2019-01-16T05:11:32.479Z,96.69
2019-01-16T05:12:32.211Z,96.97
2019-01-16T05:13:32.459Z,96.78
2019-01-16T05:14:32.192Z,97.07
2019-01-16T05:15:32.426Z,97.54
2019-01-16T05:16:32.433Z,97.54
2019-01-16T05:17:32.174Z,96.69
2019-01-16T05:18:32.401Z,96.69
2019-01-16T05:19:38.487Z,97.16
2019-01-16T05:20:32.134Z,96.78
2019-01-16T05:21:32.361Z,96.69
2019-01-16T05:22:32.367Z,97.45
2019-01-16T05:23:32.349Z,97.35
2019-01-16T05:24:32.109Z,97.54
2019-01-16T05:25:32.341Z,97.35
2019-01-16T05:26:32.078Z,97.83
2019-01-16T05:27:32.077Z,97.45
2019-01-16T05:28:32.065Z,97.35
2019-01-16T05:29:32.294Z,97.26
2019-01-16T05:30:32.032Z,96.78
2019-01-16T05:31:32.274Z,97.35
2019-01-16T05:32:32.029Z,97.35
2019-01-16T05:33:32.012Z,96.97
2019-01-16T05:34:32.237Z,97.35
2019-01-16T05:35:32.245Z,97.35
2019-01-16T05:36:32.229Z,97.64
2019-01-16T05:37:32.218Z,97.64
2019-01-16T05:38:32.232Z,97.35
2019-01-16T05:39:31.953Z,97.92
2019-01-16T05:40:32.188Z,97.64
2019-01-16T05:41:32.176Z,98.11
2019-01-16T05:42:32.195Z,98.21
2019-01-16T05:43:32.146Z,97.73
2019-01-16T05:44:32.154Z,98.02
2019-01-16T05:45:31.883Z,98.68
2019-01-16T05:46:32.130Z,98.49
2019-01-16T05:47:31.869Z,98.49
2019-01-16T05:48:32.097Z,97.54
2019-01-16T05:49:32.090Z,98.39
2019-01-16T05:50:31.838Z,97.97
2019-01-16T05:51:32.084Z,98.16
2019-01-16T05:52:31.814Z,98.72
2019-01-16T05:53:32.048Z,98.82
2019-01-16T05:54:32.065Z,98.72
2019-01-16T05:55:32.089Z,98.63
2019-01-16T05:56:32.027Z,98.06
2019-01-16T05:57:31.758Z,98.72
2019-01-16T05:58:31.760Z,99.48
2019-01-16T05:59:31.747Z,98.91
2019-01-16T06:00:31.991Z,98.63
2019-01-16T06:01:31.976Z,98.72
2019-01-16T06:02:31.964Z,99.2
2019-01-16T06:03:32.187Z,98.44
2019-01-16T06:04:31.700Z,98.35
2019-01-16T06:05:31.678Z,99.01
2019-01-16T06:06:31.928Z,99.48
2019-01-16T06:07:31.923Z,99.96
2019-01-16T06:08:31.924Z,99.39
2019-01-16T06:09:31.897Z,99.29
2019-01-16T06:10:31.885Z,99.2
2019-01-16T06:11:31.893Z,98.91
2019-01-16T06:12:31.850Z,98.91
2019-01-16T06:13:31.853Z,98.72
2019-01-16T06:14:31.832Z,99.2
2019-01-16T06:15:31.574Z,99.58
2019-01-16T06:16:31.819Z,99.48
2019-01-16T06:17:31.554Z,99.39
2019-01-16T06:18:31.544Z,99.39
2019-01-16T06:19:31.801Z,99.01
2019-01-16T06:20:31.518Z,99.48
2019-01-16T06:21:31.763Z,98.72
2019-01-16T06:22:32.701Z,98.63
2019-01-16T06:23:31.745Z,98.72
2019-01-16T06:24:31.725Z,98.16
2019-01-16T06:25:31.716Z,98.16
2019-01-16T06:26:31.465Z,98.35
2019-01-16T06:27:32.465Z,98.25
2019-01-16T06:28:31.695Z,98.54
2019-01-16T06:29:31.676Z,99.2
2019-01-16T06:30:31.666Z,99.96
2019-01-16T06:31:31.654Z,99.99
2019-01-16T06:32:31.409Z,99.77
2019-01-16T06:33:31.675Z,99.99
2019-01-16T06:34:31.628Z,99.99
2019-01-16T06:35:31.618Z,99.99
2019-01-16T06:36:31.367Z,99.99
2019-01-16T06:37:31.597Z,99.99
2019-01-16T06:38:31.604Z,99.99
2019-01-16T06:39:31.329Z,99.99
2019-01-16T06:40:31.329Z,99.99
2019-01-16T06:41:31.551Z,99.99
2019-01-16T06:42:31.288Z,99.99
2019-01-16T06:43:31.560Z,99.99
2019-01-16T06:44:33.304Z,99.99
2019-01-16T06:45:31.514Z,99.99
2019-01-16T06:46:31.499Z,99.99
2019-01-16T06:47:31.489Z,99.99
2019-01-16T06:48:31.237Z,99.99
2019-01-16T06:49:31.246Z,99.99
2019-01-16T06:50:31.470Z,99.99
2019-01-16T06:51:31.216Z,99.99
2019-01-16T06:52:31.460Z,99.99
2019-01-16T06:53:31.428Z,99.99
2019-01-16T06:54:31.416Z,99.99
2019-01-16T06:55:31.187Z,99.99
2019-01-16T06:56:31.154Z,99.99
2019-01-16T06:57:31.554Z,99.99
2019-01-16T06:58:31.376Z,99.99
2019-01-16T06:59:31.379Z,99.99
2019-01-16T07:00:31.108Z,99.99
2019-01-16T07:01:31.357Z,99.99
2019-01-16T07:02:31.080Z,99.99
2019-01-16T07:03:31.354Z,99.99
2019-01-16T07:04:31.309Z,99.99
2019-01-16T07:05:31.313Z,99.99
2019-01-16T07:06:31.309Z,99.99
2019-01-16T07:07:31.046Z,99.99
2019-01-16T07:08:31.032Z,99.99
2019-01-16T07:09:31.314Z,99.99
2019-01-16T07:10:31.247Z,99.99
2019-01-16T07:11:31.230Z,99.99
2019-01-16T07:12:32.027Z,99.99
2019-01-16T07:13:31.235Z,99.99
2019-01-16T07:14:31.204Z,99.99
2019-01-16T07:15:31.217Z,99.99
2019-01-16T07:16:31.179Z,99.99
2019-01-16T07:17:30.924Z,99.99
2019-01-16T07:18:31.165Z,99.99
2019-01-16T07:19:31.148Z,99.99
2019-01-16T07:20:31.421Z,99.99
2019-01-16T07:21:31.131Z,99.99
2019-01-16T07:22:30.875Z,99.99
2019-01-16T07:23:30.856Z,99.99
2019-01-16T07:24:31.090Z,99.99
2019-01-16T07:25:30.908Z,99.99
2019-01-16T07:26:30.819Z,99.99
2019-01-16T07:27:30.808Z,99.99
2019-01-16T07:28:31.056Z,99.99
2019-01-16T07:29:30.802Z,99.99
2019-01-16T07:30:31.025Z,99.99
2019-01-16T07:31:30.769Z,99.99
2019-01-16T07:32:30.769Z,99.99
2019-01-16T07:33:31.001Z,99.99
2019-01-16T07:34:30.743Z,99.99
2019-01-16T07:35:30.728Z,99.99
2019-01-16T07:36:30.716Z,99.99
2019-01-16T07:37:30.722Z,99.86
2019-01-16T07:38:31.422Z,99.58
2019-01-16T07:39:30.933Z,99.96
2019-01-16T07:40:30.676Z,99.99
2019-01-16T07:41:30.659Z,99.58
2019-01-16T07:42:30.937Z,99.29
2019-01-16T07:43:30.887Z,99.48
2019-01-16T07:44:30.877Z,99.39
2019-01-16T07:45:30.876Z,98.91
2019-01-16T07:46:30.614Z,98.16
2019-01-16T07:47:30.619Z,97.59
2019-01-16T07:48:30.863Z,98.25
2019-01-16T07:49:30.824Z,98.06
2019-01-16T07:50:30.827Z,98.06
2019-01-16T07:51:30.574Z,97.87
2019-01-16T07:52:30.549Z,97.97
2019-01-16T07:53:30.588Z,97.97
2019-01-16T07:54:30.526Z,97.02
2019-01-16T07:55:30.774Z,97.68
2019-01-16T07:56:30.763Z,98.16
2019-01-16T07:57:30.753Z,97.59
2019-01-16T07:58:30.488Z,97.59
2019-01-16T07:59:30.730Z,97.78
2019-01-16T08:00:30.754Z,97.02
2019-01-16T08:01:30.711Z,97.3
2019-01-16T08:02:32.291Z,97.21
2019-01-16T08:03:30.690Z,97.11
2019-01-16T08:04:30.433Z,97.11
2019-01-16T08:05:30.661Z,97.21
2019-01-16T08:06:30.655Z,97.11
2019-01-16T08:07:30.648Z,97.11
2019-01-16T08:08:30.395Z,96.55
2019-01-16T08:09:30.615Z,96.36
2019-01-16T08:10:30.369Z,96.36
2019-01-16T08:11:30.357Z,95.98
2019-01-16T08:12:30.359Z,95.98
2019-01-16T08:13:30.334Z,95.69
2019-01-16T08:14:30.565Z,95.6
2019-01-16T08:15:30.316Z,95.88
2019-01-16T08:16:30.307Z,95.6
2019-01-16T08:17:30.540Z,95.88
2019-01-16T08:18:30.537Z,95.74
2019-01-16T08:19:30.275Z,95.98
2019-01-16T08:20:30.270Z,95.6
2019-01-16T08:21:30.504Z,94.93
2019-01-16T08:22:30.502Z,94.56
2019-01-16T08:23:30.482Z,94.74
2019-01-16T08:24:30.472Z,95.03
2019-01-16T08:25:30.467Z,94.46
2019-01-16T08:26:30.465Z,95.31
2019-01-16T08:27:30.468Z,95.12
2019-01-16T08:28:30.193Z,94.93
2019-01-16T08:29:30.425Z,96.07
2019-01-16T08:30:30.408Z,96.07
2019-01-16T08:31:30.416Z,95.79
2019-01-16T08:32:30.410Z,95.17
2019-01-16T08:33:30.147Z,95.03
2019-01-16T08:34:30.410Z,94.37
2019-01-16T08:35:30.105Z,94.84
2019-01-16T08:36:30.340Z,94.13
2019-01-16T08:37:30.332Z,94.51
2019-01-16T08:38:30.086Z,94.7
2019-01-16T08:39:30.315Z,94.32
2019-01-16T08:40:30.310Z,94.23
2019-01-16T08:41:30.057Z,94.32
2019-01-16T08:42:30.290Z,94.13
2019-01-16T08:43:30.027Z,93.84
2019-01-16T08:44:30.257Z,92.71
2019-01-16T08:45:30.017Z,93.75
2019-01-16T08:46:30.245Z,94.6
2019-01-16T08:47:30.220Z,93.37
2019-01-16T08:48:29.971Z,92.71
2019-01-16T08:49:30.222Z,92.99
2019-01-16T08:50:35.052Z,93.46
2019-01-16T08:51:30.200Z,93.75
2019-01-16T08:52:29.922Z,93.46
2019-01-16T08:53:30.176Z,92.42
2019-01-16T08:54:29.922Z,92.33
2019-01-16T08:55:29.902Z,92.52
2019-01-16T08:56:30.139Z,91.76
2019-01-16T08:57:30.119Z,92.23
2019-01-16T08:58:30.145Z,92.14
2019-01-16T08:59:29.854Z,91.47
2019-01-16T09:00:30.101Z,90.43
2019-01-16T09:01:35.070Z,91
2019-01-16T09:02:29.820Z,90.72
2019-01-16T09:03:30.064Z,91.19
2019-01-16T09:04:30.054Z,90.76
2019-01-16T09:05:29.788Z,90.19
2019-01-16T09:06:30.031Z,90.43
2019-01-16T09:07:30.025Z,89.67
2019-01-16T09:08:30.021Z,89.48
2019-01-16T09:09:30.011Z,89.2
2019-01-16T09:10:29.740Z,89.86
2019-01-16T09:11:29.989Z,90.43
2019-01-16T09:12:29.967Z,90.62
2019-01-16T09:13:29.714Z,90.24
2019-01-16T09:14:29.710Z,90.43
2019-01-16T09:15:37.168Z,90.43
2019-01-16T09:16:29.940Z,90
2019-01-16T09:17:29.918Z,89.81
2019-01-16T09:18:29.689Z,90.48
2019-01-16T09:19:29.903Z,90.67
2019-01-16T09:20:29.653Z,90.1
2019-01-16T09:21:29.901Z,89.72
2019-01-16T09:22:29.627Z,89.15
2019-01-16T09:23:29.874Z,89.06
2019-01-16T09:24:29.867Z,89.15
2019-01-16T09:25:29.871Z,88.77
2019-01-16T09:26:29.589Z,88.87
2019-01-16T09:27:29.833Z,87.73
2019-01-16T09:28:29.814Z,87.16
2019-01-16T09:29:29.577Z,87.45
2019-01-16T09:30:29.814Z,88.39
2019-01-16T09:31:29.790Z,89.15
2019-01-16T09:32:29.771Z,89.06
2019-01-16T09:33:29.519Z,88.48
2019-01-16T09:34:29.770Z,87.92
2019-01-16T09:35:29.786Z,88.68
2019-01-16T09:36:30.929Z,89.25
2019-01-16T09:37:29.736Z,88.87
2019-01-16T09:38:29.759Z,87.82
2019-01-16T09:39:29.465Z,87.35
2019-01-16T09:40:29.477Z,86.78
2019-01-16T09:41:29.451Z,87.45
2019-01-16T09:42:29.440Z,87.35
2019-01-16T09:43:29.683Z,87.63
2019-01-16T09:44:29.677Z,87.92
2019-01-16T09:45:29.669Z,88.01
2019-01-16T09:46:29.674Z,87.73
2019-01-16T09:47:30.958Z,86.97
2019-01-16T09:48:29.641Z,87.45
2019-01-16T09:49:29.381Z,87.45
2019-01-16T09:50:29.618Z,86.87
2019-01-16T09:51:29.608Z,87.06
2019-01-16T09:52:29.606Z,86.4
2019-01-16T09:53:29.585Z,85.74
2019-01-16T09:54:29.580Z,85.74
2019-01-16T09:55:29.581Z,86.02
2019-01-16T09:56:29.565Z,85.83
2019-01-16T09:57:29.305Z,85.45
2019-01-16T09:58:29.307Z,85.83
2019-01-16T09:59:29.297Z,86.02
2019-01-16T10:00:29.540Z,86.21
2019-01-16T10:01:29.544Z,85.55
2019-01-16T10:02:29.526Z,85.3
2019-01-16T10:03:29.511Z,86.02
2019-01-16T10:04:29.488Z,84.92
2019-01-16T10:05:29.497Z,84.88
2019-01-16T10:06:29.486Z,84.98
2019-01-16T10:07:29.245Z,85.07
2019-01-16T10:08:29.469Z,85.64
2019-01-16T10:09:29.204Z,85.26
2019-01-16T10:10:29.441Z,85.11
2019-01-16T10:11:29.186Z,85.59
2019-01-16T10:12:29.422Z,85.97
2019-01-16T10:13:29.417Z,85.97
2019-01-16T10:14:29.413Z,84.74
2019-01-16T10:15:29.406Z,84.36
2019-01-16T10:16:29.399Z,85.02
2019-01-16T10:17:29.169Z,84.92
2019-01-16T10:18:29.369Z,84.74
2019-01-16T10:19:29.105Z,84.83
2019-01-16T10:20:29.111Z,84.83
2019-01-16T10:21:29.353Z,84.64
2019-01-16T10:22:29.083Z,84.74
2019-01-16T10:23:29.342Z,84.64
2019-01-16T10:24:29.078Z,85.11
2019-01-16T10:25:29.305Z,84.92
2019-01-16T10:26:29.308Z,85.21
2019-01-16T10:27:29.288Z,84.92
2019-01-16T10:28:29.035Z,85.3
2019-01-16T10:29:29.275Z,85.87
2019-01-16T10:30:29.030Z,85.87
2019-01-16T10:31:29.059Z,85.21
2019-01-16T10:32:29.007Z,84.64
2019-01-16T10:33:29.255Z,84.26
2019-01-16T10:34:29.226Z,84.26
2019-01-16T10:35:29.212Z,83.5
2019-01-16T10:36:29.200Z,83.12
2019-01-16T10:37:28.961Z,83.59
2019-01-16T10:38:28.957Z,83.78
2019-01-16T10:39:29.181Z,83.4
2019-01-16T10:40:28.926Z,83.4
2019-01-16T10:41:29.181Z,83.78
2019-01-16T10:42:29.158Z,83.16
2019-01-16T10:43:29.138Z,82.78
2019-01-16T10:44:29.165Z,83.07
2019-01-16T10:45:28.879Z,82.97
2019-01-16T10:46:29.136Z,82.59
2019-01-16T10:47:28.868Z,82.78
2019-01-16T10:48:28.862Z,82.21
2019-01-16T10:49:28.844Z,82.03
2019-01-16T10:50:28.844Z,82.21
2019-01-16T10:51:29.085Z,81.07
2019-01-16T10:52:28.826Z,80.98
2019-01-16T10:53:28.818Z,80.6
2019-01-16T10:54:29.059Z,81.17
2019-01-16T10:55:28.799Z,80.41
2019-01-16T10:56:29.043Z,80.32
2019-01-16T10:57:29.414Z,80.41
2019-01-16T10:58:28.797Z,80.79
2019-01-16T10:59:29.017Z,80.98
2019-01-16T11:00:29.011Z,80.98
2019-01-16T11:01:29.021Z,81.21
2019-01-16T11:02:28.766Z,81.12
2019-01-16T11:03:28.990Z,81.21
2019-01-16T11:04:28.984Z,80.74
2019-01-16T11:05:28.979Z,80.64
2019-01-16T11:06:28.979Z,79.97
2019-01-16T11:07:28.726Z,79.97
2019-01-16T11:08:28.962Z,79.79
2019-01-16T11:09:28.998Z,79.6
2019-01-16T11:10:28.691Z,79.31
2019-01-16T11:11:28.689Z,79.12
2019-01-16T11:12:28.918Z,78.45
2019-01-16T11:13:29.059Z,79.03
2019-01-16T11:14:28.666Z,79.22
2019-01-16T11:15:28.920Z,79.88
2019-01-16T11:16:28.651Z,80.45
2019-01-16T11:17:28.635Z,79.88
2019-01-16T11:18:28.903Z,79.69
2019-01-16T11:19:28.870Z,79.5
2019-01-16T11:20:28.668Z,79.12
2019-01-16T11:21:28.861Z,78.74
2019-01-16T11:22:28.604Z,78.83
2019-01-16T11:23:28.857Z,78.74
2019-01-16T11:24:28.836Z,78.93
2019-01-16T11:25:28.578Z,78.74
2019-01-16T11:26:28.578Z,79.12
2019-01-16T11:27:28.820Z,78.83
2019-01-16T11:28:28.560Z,78.83
2019-01-16T11:29:28.818Z,78.93
2019-01-16T11:30:28.793Z,78.64
2019-01-16T11:31:28.792Z,78.17
2019-01-16T11:32:28.537Z,78.08
2019-01-16T11:33:28.768Z,77.92
2019-01-16T11:34:28.532Z,77.45
2019-01-16T11:35:28.524Z,77.31
2019-01-16T11:36:28.539Z,77.31
2019-01-16T11:37:28.766Z,77.64
2019-01-16T11:38:28.766Z,77.64
2019-01-16T11:39:28.768Z,78.02
2019-01-16T11:40:28.501Z,77.55
2019-01-16T11:41:28.721Z,77.55
2019-01-16T11:42:28.744Z,76.31
2019-01-16T11:43:28.715Z,76.4
2019-01-16T11:44:28.711Z,75.74
2019-01-16T11:45:28.714Z,76.12
2019-01-16T11:46:28.722Z,75.84
2019-01-16T11:47:28.713Z,76.12
2019-01-16T11:48:28.438Z,75.74
2019-01-16T11:49:28.713Z,75.84
2019-01-16T11:50:28.412Z,75.17
2019-01-16T11:51:36.052Z,75.74
2019-01-16T11:52:28.405Z,75.74
2019-01-16T11:53:28.715Z,75.26
2019-01-16T11:54:28.383Z,75.36
2019-01-16T11:55:28.625Z,75.26
2019-01-16T11:56:28.379Z,74.51
2019-01-16T11:57:28.371Z,74.03
2019-01-16T11:58:28.628Z,74.51
2019-01-16T11:59:29.173Z,74.98
2019-01-16T12:00:28.595Z,74.88
2019-01-16T12:01:28.587Z,75.55
2019-01-16T12:02:28.584Z,76.12
2019-01-16T12:03:28.575Z,77.12
2019-01-16T12:04:28.593Z,76.78
2019-01-16T12:05:28.571Z,77.26
2019-01-16T12:06:28.317Z,76.97
2019-01-16T12:07:28.304Z,76.31
2019-01-16T12:08:28.544Z,75.26
2019-01-16T12:09:28.560Z,75.07
2019-01-16T12:10:28.537Z,75.26
2019-01-16T12:11:28.282Z,75.64
2019-01-16T12:12:28.524Z,75.84
2019-01-16T12:13:28.267Z,76.03
2019-01-16T12:14:28.261Z,75.74
2019-01-16T12:15:28.512Z,75.74
2019-01-16T12:16:28.500Z,75.26
2019-01-16T12:17:29.739Z,75.3
2019-01-16T12:18:28.480Z,73.88
2019-01-16T12:19:28.471Z,73.59
2019-01-16T12:20:28.217Z,74.07
2019-01-16T12:21:29.141Z,73.88
2019-01-16T12:22:28.475Z,74.16
2019-01-16T12:23:28.452Z,74.35
2019-01-16T12:24:28.451Z,74.35
2019-01-16T12:25:28.450Z,74.16
2019-01-16T12:26:28.440Z,73.78
2019-01-16T12:27:28.433Z,73.11
2019-01-16T12:28:28.442Z,73.02
2019-01-16T12:29:28.163Z,71.69
2019-01-16T12:30:28.404Z,71.69
2019-01-16T12:31:28.406Z,72.07
2019-01-16T12:32:28.394Z,72.64
2019-01-16T12:33:28.408Z,72.64
2019-01-16T12:34:28.392Z,72.35
2019-01-16T12:35:28.392Z,71.5
2019-01-16T12:36:28.380Z,71.22
2019-01-16T12:37:28.361Z,71.22
2019-01-16T12:38:28.354Z,71.5
2019-01-16T12:39:28.350Z,71.5
2019-01-16T12:40:28.346Z,71.41
2019-01-16T12:41:28.338Z,71.97
2019-01-16T12:42:28.341Z,71.78
2019-01-16T12:43:28.332Z,72.35
2019-01-16T12:44:28.077Z,71.78
2019-01-16T12:45:28.069Z,71.5
2019-01-16T12:46:28.314Z,72.45
2019-01-16T12:47:28.303Z,72.55
2019-01-16T12:48:28.414Z,72.07
2019-01-16T12:49:28.306Z,71.59
2019-01-16T12:50:28.318Z,71.5
2019-01-16T12:51:33.549Z,71.59
2019-01-16T12:52:28.030Z,71.44
2019-01-16T12:53:28.067Z,71.34
2019-01-16T12:54:28.330Z,70.1
2019-01-16T12:55:28.255Z,70.2